Che — T2KJ2 — position and weather

sailwx.info

Track history (hours):
 
Tides and Currents Weather Stations Pressure Air Temp Water Temp Dewpoint Dewpoint Depression Visibility Wind Speed Wind Dir Waves Ship Positions

Che

Last reported at 2017-Dec-14 03:45 UTC. Time now 2017-Dec-16 03:35 UTC.
Position N 42°46' E 039°58'.

; draft 4 m.

MMSI: 572265000.

Date/timePositionNaut miles runAvg speedWind from/ knotsBaromVisibWave heightAir tempDewpointWater temp
2017-Dec-14 03:45N 42°46' E 039°58'3 9.8
2017-Dec-14 03:29N 42°47' E 039°55'12 9.9
2017-Dec-14 02:14N 42°54' E 039°41'210.2
2017-Dec-14 02:00N 42°56' E 039°39'1810.2
2017-Dec-14 00:15N 43°05' E 039°18'510.1
2017-Dec-13 23:44N 43°08' E 039°12'310.2
2017-Dec-13 23:28N 43°09' E 039°09'510.4
2017-Dec-13 22:58N 43°11' E 039°02'510.7
2017-Dec-13 22:30N 43°13' E 038°56'45 9.4
2017-Dec-13 17:41N 43°46' E 038°12'2 9.9
2017-Dec-13 17:31N 43°47' E 038°12'33 9.2
2017-Dec-13 13:57N 44°14' E 037°46'5 9.7
2017-Dec-13 13:29N 44°17' E 037°41'5 9.5
2017-Dec-13 12:58N 44°20' E 037°36'4 8.6
2017-Dec-13 12:30N 44°23' E 037°32'4 8.5
2017-Dec-13 11:59N 44°25' E 037°26'1 0.3
2017-Dec-13 08:46N 44°24' E 037°25'3 1.3
2017-Dec-13 06:28N 44°22' E 037°29'8 1.1
2017-Dec-12 22:43N 44°17' E 037°37'0 1.4
2017-Dec-12 22:25N 44°16' E 037°37'2 1.5
2017-Dec-12 21:00N 44°14' E 037°38'4 5.2
2017-Dec-12 20:17N 44°16' E 037°42'2375.0
2017-Dec-12 19:58N 44°35' E 038°01'0 0.0
2017-Dec-12 19:30N 44°35' E 038°01'1734.0
2017-Dec-12 19:00N 44°25' E 037°43'1 2.0
2017-Dec-12 18:30N 44°24' E 037°42'1 2.0
2017-Dec-12 18:00N 44°23' E 037°42'1 1.9
2017-Dec-12 17:30N 44°22' E 037°42'1 2.0
2017-Dec-12 16:59N 44°21' E 037°41'3 6.0
2017-Dec-12 16:30N 44°18' E 037°40'1010.2
2017-Dec-12 15:31N 44°08' E 037°36'110.2
2017-Dec-12 15:27N 44°08' E 037°35'810.1
2017-Dec-12 14:41N 44°00' E 037°33'410.1
2017-Dec-12 14:18N 43°57' E 037°31'310.1
2017-Dec-12 14:00N 43°54' E 037°30'610.1
2017-Dec-12 13:26N 43°48' E 037°28'410.2
2017-Dec-12 13:00N 43°44' E 037°27'5 9.5
2017-Dec-12 12:30N 43°40' E 037°24'5 9.8
2017-Dec-12 12:00N 43°38' E 037°17'5 9.7
2017-Dec-12 11:30N 43°37' E 037°11'5 9.9
2017-Dec-12 11:00N 43°35' E 037°05'  
2017-Dec-10 00:17N 40°57' E 028°59'2 6.7
2017-Dec-10 00:01N 40°56' E 028°58'  
Track history (hours):
 
Tides and Currents Weather Stations Pressure Air Temp Water Temp Dewpoint Dewpoint Depression Visibility Wind Speed Wind Dir Waves Ship Positions

Che

Last reported at 2017-Dec-14 03:45 UTC. Time now 2017-Dec-16 03:35 UTC.
Position N 42°46' E 039°58'.

; draft 4 m.

MMSI: 572265000.

Date/timePositionNaut miles runAvg speedWind from/ knotsBaromVisibWave heightAir tempDewpointWater temp
2017-Dec-14 03:45N 42°46' E 039°58'3 9.8
2017-Dec-14 03:29N 42°47' E 039°55'12 9.9
2017-Dec-14 02:14N 42°54' E 039°41'210.2
2017-Dec-14 02:00N 42°56' E 039°39'1810.2
2017-Dec-14 00:15N 43°05' E 039°18'510.1
2017-Dec-13 23:44N 43°08' E 039°12'310.2
2017-Dec-13 23:28N 43°09' E 039°09'510.4
2017-Dec-13 22:58N 43°11' E 039°02'510.7
2017-Dec-13 22:30N 43°13' E 038°56'45 9.4
2017-Dec-13 17:41N 43°46' E 038°12'2 9.9
2017-Dec-13 17:31N 43°47' E 038°12'33 9.2
2017-Dec-13 13:57N 44°14' E 037°46'5 9.7
2017-Dec-13 13:29N 44°17' E 037°41'5 9.5
2017-Dec-13 12:58N 44°20' E 037°36'4 8.6
2017-Dec-13 12:30N 44°23' E 037°32'4 8.5
2017-Dec-13 11:59N 44°25' E 037°26'1 0.3
2017-Dec-13 08:46N 44°24' E 037°25'3 1.3
2017-Dec-13 06:28N 44°22' E 037°29'8 1.1
2017-Dec-12 22:43N 44°17' E 037°37'0 1.4
2017-Dec-12 22:25N 44°16' E 037°37'2 1.5
2017-Dec-12 21:00N 44°14' E 037°38'4 5.2
2017-Dec-12 20:17N 44°16' E 037°42'2375.0
2017-Dec-12 19:58N 44°35' E 038°01'0 0.0
2017-Dec-12 19:30N 44°35' E 038°01'1734.0
2017-Dec-12 19:00N 44°25' E 037°43'1 2.0
2017-Dec-12 18:30N 44°24' E 037°42'1 2.0
2017-Dec-12 18:00N 44°23' E 037°42'1 1.9
2017-Dec-12 17:30N 44°22' E 037°42'1 2.0
2017-Dec-12 16:59N 44°21' E 037°41'3 6.0
2017-Dec-12 16:30N 44°18' E 037°40'1010.2
2017-Dec-12 15:31N 44°08' E 037°36'110.2
2017-Dec-12 15:27N 44°08' E 037°35'810.1
2017-Dec-12 14:41N 44°00' E 037°33'410.1
2017-Dec-12 14:18N 43°57' E 037°31'310.1
2017-Dec-12 14:00N 43°54' E 037°30'610.1
2017-Dec-12 13:26N 43°48' E 037°28'410.2
2017-Dec-12 13:00N 43°44' E 037°27'5 9.5
2017-Dec-12 12:30N 43°40' E 037°24'5 9.8
2017-Dec-12 12:00N 43°38' E 037°17'5 9.7
2017-Dec-12 11:30N 43°37' E 037°11'5 9.9
2017-Dec-12 11:00N 43°35' E 037°05'  
2017-Dec-10 00:17N 40°57' E 028°59'2 6.7
2017-Dec-10 00:01N 40°56' E 028°58'  

Dump ship's entire track history